Airfield :
LOGIN :

Register | Disclaimer

   EN    FR    IT 

 










Legend :    VFR   Marginal VFR   IFR   Intensive IFR   Very Intensive IFR
Visi :
Ceiling :
>= 8 km
>= 3000ft
5 to 8 km
1000 to 3000 ft
1500m to 5 km
500 to 1000 ft
800 to 1500m
200 to 500 ft
< 800m
< 200 ft
Symbols :   Thunderstorms  Fog  Heavy snow  Heavy precipitations  Wind > 20 kt
SIGMETs :     Misc.  Thunderstorms  Icing  Turbulence  Mountain Waves  Volcanic Ashes







- Airport Elevation : 348 ft
- IATA code : STN
- Download approach charts


EGSS - London Stansted

CURRENT METAR :
  • 200120Z AUTO 35005KT 2100 DZ OVC002 07/07 Q1017 RERA

EXPIRED METARs :
  • 200050Z AUTO 36006KT 2500 -RADZ OVC002 07/07 Q1017 RERA REDZ
  • 200020Z AUTO 35006KT 2600 DZ OVC002 07/07 Q1017 RERA
  • 192350Z AUTO 35006KT 3100 RADZ BKN002 OVC009 07/07 Q1017
  • 192320Z AUTO 35006KT 2300 DZ BKN002 OVC021 07/07 Q1016
  • 192250Z AUTO 33006KT 1700 -RADZ OVC002 08/08 Q1016

TAF TAF EGSS
Valid from the 20 at 00:00 until the 21 at 06:00 UTC


192302Z 2000/2106 34009KT 2000 BR BKN003
TEMPO 2000/2011 1200 DZ
PROB40 2000/2010 0300 FG OVC001
BECMG 2011/2014 9999 NSW BKN018
TEMPO 2011/2014 RADZ
TEMPO 2011/2020 35015G25KT
TEMPO 2014/2020 8000 -SHRA BKN010
TEMPO 2020/2106 BKN009
ATIS : +44 1279 669 325
No reported NOTAMs for that airfield.



MET'MAP, your aeronautical weather chart ! - Copyright ORBIFLY December 2007 - Disclaimer

ORBIFLY MET'MAP TEAM :

Programming & Development : Alexandra Zaïnal
Concept & Development : Baudouin d'Aumeries
Co-Development & Prog : Marc-Olivier Méhu
Technical & hardware support : Manuel Goepfert

Contact : metmap@orbifly.com




SOURCES & CREDITS :

   NOAA